createdAt,value
2023-07-28T00:00:44.119Z,197.73
2023-07-28T00:05:00.896Z,195.60
2023-07-28T00:07:03.716Z,205.15
2023-07-28T00:09:06.405Z,216.10
2023-07-28T00:11:13.472Z,249.50
2023-07-28T00:13:17.565Z,180.93
2023-07-28T00:17:26.346Z,420.02
2023-07-28T00:19:31.283Z,252.88
2023-07-28T00:21:36.602Z,200.30
2023-07-28T00:23:39.291Z,192.80
2023-07-28T00:25:42.036Z,193.15
2023-07-28T00:27:44.800Z,216.75
2023-07-28T00:29:51.361Z,187.00
2023-07-28T00:31:54.259Z,197.05
2023-07-28T00:33:56.959Z,172.45
2023-07-28T00:36:00.116Z,226.93
2023-07-28T00:38:05.576Z,204.27
2023-07-28T00:40:13.797Z,205.10
2023-07-28T00:42:16.736Z,224.07
2023-07-28T00:44:23.474Z,221.82
2023-07-28T00:46:26.728Z,173.02
2023-07-28T00:48:29.572Z,202.80
2023-07-28T00:50:32.244Z,221.73
2023-07-28T00:52:35.144Z,170.65
2023-07-28T00:54:41.098Z,196.05
2023-07-28T00:56:43.985Z,170.82
2023-07-28T00:58:46.744Z,199.63
2023-07-28T01:00:49.441Z,182.77
2023-07-28T01:02:52.342Z,199.25
2023-07-28T01:04:57.861Z,181.00
2023-07-28T01:07:05.843Z,166.05
2023-07-28T01:09:14.473Z,195.55
2023-07-28T01:11:21.188Z,206.55
2023-07-28T01:13:26.260Z,214.80
2023-07-28T01:15:28.944Z,168.95
2023-07-28T01:17:33.609Z,151.98
2023-07-28T01:19:36.530Z,158.77
2023-07-28T01:21:45.257Z,208.55
2023-07-28T01:23:57.286Z,165.18
2023-07-28T01:26:15.842Z,178.93
2023-07-28T01:28:25.208Z,190.07
2023-07-28T01:30:29.026Z,169.60
2023-07-28T01:32:31.969Z,170.27
2023-07-28T01:34:34.804Z,209.43
2023-07-28T01:36:37.725Z,161.20
2023-07-28T01:38:41.271Z,171.07
2023-07-28T01:40:44.049Z,178.63
2023-07-28T01:42:46.935Z,174.73
2023-07-28T01:44:55.553Z,169.82
2023-07-28T01:46:58.422Z,178.68
2023-07-28T01:49:01.299Z,158.30
2023-07-28T01:51:04.239Z,172.00
2023-07-28T01:53:08.037Z,172.15
2023-07-28T01:55:10.963Z,195.68
2023-07-28T01:57:13.635Z,154.27
2023-07-28T01:59:18.676Z,194.27
2023-07-28T02:01:24.353Z,193.15
2023-07-28T02:03:27.289Z,173.73
2023-07-28T02:05:30.337Z,165.57
2023-07-28T02:07:33.385Z,157.60
2023-07-28T02:09:36.091Z,154.13
2023-07-28T02:11:38.813Z,162.70
2023-07-28T02:13:41.695Z,171.10
2023-07-28T02:15:50.131Z,158.70
2023-07-28T02:17:56.297Z,144.95
2023-07-28T02:19:58.933Z,155.45
2023-07-28T02:22:01.733Z,146.23
2023-07-28T02:24:05.108Z,153.80
2023-07-28T02:26:09.833Z,154.27
2023-07-28T02:28:13.279Z,172.50
2023-07-28T02:30:16.124Z,154.93
2023-07-28T02:32:18.776Z,169.77
2023-07-28T02:34:24.112Z,151.43
2023-07-28T02:36:26.808Z,155.73
2023-07-28T02:38:29.537Z,178.23
2023-07-28T02:40:34.617Z,153.77
2023-07-28T02:42:37.303Z,163.50
2023-07-28T02:44:40.280Z,154.85
2023-07-28T02:46:43.325Z,131.15
2023-07-28T02:48:46.124Z,137.85
2023-07-28T02:50:52.652Z,144.60
2023-07-28T02:52:55.387Z,128.75
2023-07-28T02:54:58.249Z,138.20
2023-07-28T02:57:00.917Z,160.20
2023-07-28T02:59:03.707Z,141.95
2023-07-28T03:01:07.410Z,153.23
2023-07-28T03:03:13.656Z,167.60
2023-07-28T03:05:17.782Z,165.75
2023-07-28T03:07:23.119Z,121.05
2023-07-28T03:09:32.634Z,137.30
2023-07-28T03:11:38.954Z,146.68
2023-07-28T03:14:01.687Z,150.95
2023-07-28T03:16:04.712Z,137.65
2023-07-28T03:18:08.329Z,147.52
2023-07-28T03:20:12.535Z,142.18
2023-07-28T03:24:20.777Z,128.27
2023-07-28T03:26:23.665Z,127.20
2023-07-28T03:28:26.346Z,144.20
2023-07-28T03:30:29.317Z,149.45
2023-07-28T03:32:32.299Z,147.20
2023-07-28T03:34:35.056Z,116.45
2023-07-28T03:36:41.312Z,157.00
2023-07-28T03:38:44.026Z,147.13
2023-07-28T03:40:49.343Z,136.93
2023-07-28T03:42:52.832Z,127.65
2023-07-28T03:44:55.732Z,145.80
2023-07-28T03:46:58.480Z,105.35
2023-07-28T03:49:03.646Z,148.80
2023-07-28T03:51:06.412Z,140.60
2023-07-28T03:53:09.069Z,122.90
2023-07-28T03:55:11.767Z,119.32
2023-07-28T03:57:16.873Z,143.88
2023-07-28T03:59:19.983Z,133.40
2023-07-28T04:01:23.512Z,110.47
2023-07-28T04:03:26.287Z,130.77
2023-07-28T04:05:28.916Z,136.45
2023-07-28T04:07:31.543Z,136.73
2023-07-28T04:09:35.793Z,132.25
2023-07-28T04:11:38.624Z,124.00
2023-07-28T04:13:47.094Z,133.32
2023-07-28T04:15:55.801Z,110.63
2023-07-28T04:18:01.641Z,123.10
2023-07-28T04:20:08.777Z,125.45
2023-07-28T04:22:11.512Z,127.57
2023-07-28T04:24:14.323Z,128.25
2023-07-28T04:26:24.229Z,132.27
2023-07-28T04:28:32.442Z,115.40
2023-07-28T04:30:40.366Z,107.78
2023-07-28T04:32:47.381Z,116.22
2023-07-28T04:34:58.798Z,130.18
2023-07-28T04:37:17.402Z,126.55
2023-07-28T04:39:34.056Z,125.90
2023-07-28T04:41:37.168Z,105.68
2023-07-28T04:43:39.809Z,140.25
2023-07-28T04:45:48.066Z,139.95
2023-07-28T04:47:58.779Z,122.68
2023-07-28T04:50:05.244Z,106.72
2023-07-28T04:52:33.582Z,112.00
2023-07-28T04:55:06.386Z,91.97
2023-07-28T04:57:09.069Z,135.43
2023-07-28T04:59:14.215Z,126.10
2023-07-28T05:01:20.070Z,115.47
2023-07-28T05:03:24.062Z,131.43
2023-07-28T05:05:35.270Z,123.95
2023-07-28T05:07:45.503Z,131.45
2023-07-28T05:09:51.163Z,111.47
2023-07-28T05:11:55.746Z,122.22
2023-07-28T05:13:58.444Z,121.30
2023-07-28T05:16:02.148Z,125.38
2023-07-28T05:18:27.540Z,112.43
2023-07-28T05:21:05.329Z,125.47
2023-07-28T05:23:08.052Z,192.95
2023-07-28T05:25:11.240Z,124.03
2023-07-28T05:27:17.496Z,126.05
2023-07-28T05:29:24.438Z,125.88
2023-07-28T05:31:34.262Z,87.18
2023-07-28T05:33:43.308Z,109.78
2023-07-28T05:35:46.020Z,118.47
2023-07-28T05:37:48.568Z,105.90
2023-07-28T05:39:52.524Z,130.85
2023-07-28T05:41:57.070Z,92.85
2023-07-28T05:43:59.969Z,74.70
2023-07-28T05:46:03.167Z,115.70
2023-07-28T05:48:10.075Z,117.28
2023-07-28T05:50:18.324Z,123.03
2023-07-28T05:52:21.096Z,137.48
2023-07-28T05:54:25.888Z,120.93
2023-07-28T05:56:28.696Z,70.45
2023-07-28T05:58:31.513Z,128.48
2023-07-28T06:00:35.369Z,125.38
2023-07-28T06:02:38.714Z,103.10
2023-07-28T06:04:46.408Z,133.43
2023-07-28T06:06:51.638Z,89.05
2023-07-28T06:08:54.601Z,80.47
2023-07-28T06:10:58.283Z,123.65
2023-07-28T06:13:01.057Z,85.45
2023-07-28T06:15:08.452Z,123.55
2023-07-28T06:17:13.576Z,114.15
2023-07-28T06:19:18.322Z,115.70
2023-07-28T06:21:21.908Z,103.10
2023-07-28T06:23:27.248Z,105.28
2023-07-28T06:25:33.934Z,123.40
2023-07-28T06:27:44.943Z,107.28
2023-07-28T06:29:48.273Z,61.38
2023-07-28T06:31:52.059Z,161.83
2023-07-28T06:33:57.907Z,82.90
2023-07-28T06:36:00.590Z,91.10
2023-07-28T06:38:07.252Z,53.07
2023-07-28T06:40:13.478Z,95.82
2023-07-28T06:42:17.888Z,65.47
2023-07-28T06:44:20.402Z,111.65
2023-07-28T06:46:27.115Z,63.08
2023-07-28T06:48:29.849Z,99.75
2023-07-28T06:50:33.648Z,86.40
2023-07-28T06:52:37.468Z,45.35
2023-07-28T06:54:40.549Z,67.75
2023-07-28T06:56:47.521Z,78.22
2023-07-28T06:58:57.885Z,84.43
2023-07-28T07:01:10.773Z,39.88
2023-07-28T07:03:17.758Z,80.55
2023-07-28T07:05:20.443Z,58.20
2023-07-28T07:07:23.236Z,78.72
2023-07-28T07:09:28.034Z,108.32
2023-07-28T07:11:30.876Z,100.47
2023-07-28T07:13:36.159Z,64.05
2023-07-28T07:15:38.912Z,88.28
2023-07-28T07:17:41.910Z,50.50
2023-07-28T07:19:45.145Z,43.27
2023-07-28T07:21:49.045Z,45.85
2023-07-28T07:23:51.771Z,67.77
2023-07-28T07:26:03.456Z,45.20
2023-07-28T07:28:06.380Z,95.88
2023-07-28T07:30:12.870Z,61.65
2023-07-28T07:32:17.348Z,45.47
2023-07-28T07:34:21.535Z,45.97
2023-07-28T07:36:24.414Z,48.63
2023-07-28T07:38:27.191Z,70.95
2023-07-28T07:40:32.982Z,72.00
2023-07-28T07:42:48.123Z,42.42
2023-07-28T07:44:53.266Z,77.85
2023-07-28T07:47:02.129Z,118.75
2023-07-28T07:49:07.104Z,57.67
2023-07-28T07:51:10.012Z,153.75
2023-07-28T07:53:14.707Z,87.90
2023-07-28T07:55:18.312Z,87.28
2023-07-28T07:57:20.956Z,145.50
2023-07-28T07:59:24.176Z,76.68
2023-07-28T08:01:27.008Z,50.57
2023-07-28T08:03:34.197Z,142.10
2023-07-28T08:05:37.059Z,115.75
2023-07-28T08:07:40.096Z,51.38
2023-07-28T08:09:43.084Z,61.35
2023-07-28T08:11:45.723Z,114.55
2023-07-28T08:13:49.872Z,85.03
2023-07-28T08:15:54.863Z,123.28
2023-07-28T08:17:57.711Z,67.72
2023-07-28T08:20:05.365Z,181.45
2023-07-28T08:22:09.084Z,136.90
2023-07-28T08:24:13.127Z,131.35
2023-07-28T08:28:19.564Z,138.93
2023-07-28T08:30:23.288Z,338.60
2023-07-28T08:32:29.017Z,349.48
2023-07-28T08:34:31.824Z,115.75
2023-07-28T08:36:37.026Z,209.50
2023-07-28T08:38:40.026Z,237.15
2023-07-28T08:40:45.373Z,151.00
2023-07-28T08:42:49.054Z,199.13
2023-07-28T08:44:53.960Z,229.00
2023-07-28T08:47:02.065Z,225.75
2023-07-28T08:49:07.017Z,261.70
2023-07-28T08:51:13.359Z,186.73
2023-07-28T08:53:22.441Z,136.85
2023-07-28T08:55:27.406Z,197.65
2023-07-28T08:57:30.087Z,242.98
2023-07-28T08:59:32.983Z,259.33
2023-07-28T09:01:41.231Z,216.43
2023-07-28T09:03:44.985Z,214.18
2023-07-28T09:05:54.270Z,195.93
2023-07-28T09:07:59.868Z,108.72
2023-07-28T09:10:07.354Z,188.15
2023-07-28T09:12:10.319Z,64.10
2023-07-28T09:14:18.320Z,208.85
2023-07-28T09:16:26.185Z,198.02
2023-07-28T09:18:29.180Z,52.90
2023-07-28T09:20:43.301Z,153.25
2023-07-28T09:22:51.746Z,305.88
2023-07-28T09:24:54.535Z,224.50
2023-07-28T09:27:01.333Z,180.38
2023-07-28T09:29:17.180Z,149.98
2023-07-28T09:31:31.445Z,190.13
2023-07-28T09:33:37.240Z,66.97
2023-07-28T09:35:53.461Z,65.07
2023-07-28T09:38:02.617Z,123.90
2023-07-28T09:40:13.044Z,48.90
2023-07-28T09:42:21.172Z,115.30
2023-07-28T09:44:23.893Z,82.70
2023-07-28T09:46:30.856Z,57.08
2023-07-28T09:48:43.446Z,39.67
2023-07-28T09:50:46.126Z,222.63
2023-07-28T09:52:56.060Z,56.72
2023-07-28T09:55:04.357Z,64.43
2023-07-28T09:57:14.303Z,66.70
2023-07-28T09:59:22.543Z,74.20
2023-07-28T10:01:29.493Z,63.35
2023-07-28T10:03:32.825Z,178.00
2023-07-28T10:05:38.311Z,94.45
2023-07-28T10:07:46.246Z,127.65
2023-07-28T10:09:50.339Z,40.80
2023-07-28T10:11:53.192Z,85.75
2023-07-28T10:13:59.228Z,310.35
2023-07-28T10:16:06.085Z,46.92
2023-07-28T10:18:11.430Z,106.78
2023-07-28T10:20:30.331Z,62.78
2023-07-28T10:22:34.833Z,45.40
2023-07-28T10:24:58.300Z,228.75
2023-07-28T10:27:00.968Z,49.42
2023-07-28T10:29:11.640Z,40.50
2023-07-28T10:31:34.710Z,46.28
2023-07-28T10:33:42.527Z,163.32
2023-07-28T10:35:49.686Z,141.02
2023-07-28T10:37:58.593Z,212.80
2023-07-28T10:40:27.870Z,108.78
2023-07-28T10:42:30.449Z,76.75
2023-07-28T10:44:33.638Z,42.97
2023-07-28T10:46:40.208Z,36.22
2023-07-28T10:48:45.243Z,363.27
2023-07-28T10:50:48.488Z,325.75
2023-07-28T10:52:51.314Z,62.45
2023-07-28T10:54:54.270Z,298.05
2023-07-28T10:57:02.726Z,329.20
2023-07-28T10:59:07.541Z,364.02
2023-07-28T11:01:10.228Z,200.80
2023-07-28T11:03:15.993Z,72.18
2023-07-28T11:05:21.686Z,62.42
2023-07-28T11:07:25.691Z,104.55
2023-07-28T11:11:31.335Z,296.33
2023-07-28T11:13:41.002Z,300.40
2023-07-28T11:15:45.367Z,285.30
2023-07-28T11:19:57.426Z,215.23
2023-07-28T11:22:00.628Z,347.25
2023-07-28T11:24:07.074Z,324.60
2023-07-28T11:26:13.226Z,63.80
2023-07-28T11:28:17.984Z,232.55
2023-07-28T11:30:23.209Z,343.60
2023-07-28T11:32:25.986Z,393.02
2023-07-28T11:34:28.635Z,272.20
2023-07-28T11:36:34.372Z,273.10
2023-07-28T11:38:38.701Z,397.60
2023-07-28T11:40:43.517Z,98.18
2023-07-28T11:42:48.158Z,142.50
2023-07-28T11:44:54.210Z,348.15
2023-07-28T11:46:57.127Z,304.30
2023-07-28T11:49:09.172Z,295.65
2023-07-28T11:51:15.130Z,198.20
2023-07-28T11:53:23.497Z,240.88
2023-07-28T11:55:27.021Z,170.00
2023-07-28T11:57:34.137Z,315.30
2023-07-28T11:59:37.198Z,83.20
2023-07-28T12:04:02.091Z,349.45
2023-07-28T12:08:34.312Z,486.50
2023-07-28T12:17:27.796Z,197.88
2023-07-28T12:19:23.382Z,145.82
2023-07-28T12:21:26.493Z,388.58
2023-07-28T12:25:38.296Z,105.75
2023-07-28T12:27:41.876Z,257.63
2023-07-28T12:31:50.116Z,138.85
2023-07-28T12:43:05.122Z,99.90
2023-07-28T12:46:58.625Z,91.82
2023-07-28T12:49:01.278Z,216.20
2023-07-28T12:51:04.524Z,306.90
2023-07-28T12:53:15.738Z,241.15
2023-07-28T12:55:23.306Z,330.08
2023-07-28T12:57:26.206Z,153.05
2023-07-28T12:59:30.111Z,107.93
2023-07-28T13:03:35.449Z,106.45
2023-07-28T13:05:38.351Z,268.90
2023-07-28T13:09:47.717Z,119.85
2023-07-28T13:13:58.811Z,76.03
2023-07-28T13:16:01.591Z,85.43
2023-07-28T13:18:04.451Z,130.50
2023-07-28T13:20:09.092Z,183.20
2023-07-28T13:22:13.701Z,160.40
2023-07-28T13:24:16.557Z,350.90
2023-07-28T13:26:19.327Z,304.48
2023-07-28T13:28:26.852Z,87.65
2023-07-28T13:30:30.326Z,360.63
2023-07-28T13:32:34.478Z,393.75
2023-07-28T13:34:37.321Z,153.27
2023-07-28T13:36:40.079Z,72.03
2023-07-28T13:38:43.280Z,149.23
2023-07-28T13:40:48.543Z,203.65
2023-07-28T13:42:51.193Z,145.05
2023-07-28T13:44:58.504Z,341.92
2023-07-28T13:47:02.189Z,350.30
2023-07-28T13:49:08.148Z,372.23
2023-07-28T13:51:19.251Z,452.48
2023-07-28T13:57:35.007Z,223.82
2023-07-28T13:59:40.017Z,372.40
2023-07-28T14:01:45.854Z,375.92
2023-07-28T14:03:48.558Z,451.10
2023-07-28T14:05:51.331Z,143.70
2023-07-28T14:07:54.135Z,385.15
2023-07-28T14:09:56.975Z,300.65
2023-07-28T14:12:00.187Z,434.40
2023-07-28T14:14:02.841Z,373.65
2023-07-28T14:16:05.949Z,444.38
2023-07-28T14:18:11.353Z,398.35
2023-07-28T14:20:14.506Z,181.27
2023-07-28T14:22:17.109Z,316.95
2023-07-28T14:24:19.796Z,228.40
2023-07-28T14:26:22.604Z,470.30
2023-07-28T14:28:27.752Z,365.13
2023-07-28T14:30:30.737Z,294.95
2023-07-28T14:32:33.405Z,519.83
2023-07-28T14:34:39.012Z,515.67
2023-07-28T14:36:41.702Z,394.85
2023-07-28T14:38:44.443Z,498.25
2023-07-28T14:40:51.920Z,493.08
2023-07-28T14:42:54.662Z,483.48
2023-07-28T14:44:59.379Z,483.40
2023-07-28T14:47:03.116Z,366.67
2023-07-28T14:49:08.441Z,516.28
2023-07-28T14:51:16.828Z,444.48
2023-07-28T14:53:35.913Z,127.72
2023-07-28T14:55:39.916Z,157.43
2023-07-28T14:57:42.551Z,496.10
2023-07-28T14:59:47.606Z,461.40
2023-07-28T15:01:51.684Z,479.65
2023-07-28T15:03:54.504Z,343.15
2023-07-28T15:05:57.525Z,468.33
2023-07-28T15:08:02.806Z,308.73
2023-07-28T15:10:06.195Z,120.68
2023-07-28T15:12:09.480Z,466.52
2023-07-28T15:14:13.264Z,452.02
2023-07-28T15:18:20.748Z,458.30
2023-07-28T15:20:25.705Z,470.90
2023-07-28T15:22:30.997Z,499.90
2023-07-28T15:24:40.168Z,348.17
2023-07-28T15:26:48.366Z,521.80
2023-07-28T15:28:51.870Z,451.75
2023-07-28T15:31:01.347Z,526.10
2023-07-28T15:33:04.389Z,260.88
2023-07-28T15:35:08.420Z,472.13
2023-07-28T15:37:11.058Z,504.05
2023-07-28T15:39:13.675Z,414.02
2023-07-28T15:41:27.553Z,471.85
2023-07-28T15:43:30.261Z,292.30
2023-07-28T15:45:35.659Z,407.75
2023-07-28T15:47:45.717Z,410.63
2023-07-28T15:49:48.652Z,517.58
2023-07-28T15:51:51.303Z,293.50
2023-07-28T15:53:59.020Z,218.00
2023-07-28T15:56:01.771Z,267.02
2023-07-28T15:58:07.218Z,245.98
2023-07-28T16:00:11.615Z,125.60
2023-07-28T16:02:19.473Z,238.10
2023-07-28T16:04:22.337Z,146.93
2023-07-28T16:06:29.398Z,149.10
2023-07-28T16:08:32.045Z,128.68
2023-07-28T16:10:36.898Z,117.75
2023-07-28T16:12:39.955Z,142.40
2023-07-28T16:14:45.192Z,137.67
2023-07-28T16:16:48.500Z,190.82
2023-07-28T16:18:51.375Z,127.93
2023-07-28T16:20:54.002Z,154.73
2023-07-28T16:22:57.142Z,191.77
2023-07-28T16:24:59.806Z,125.25
2023-07-28T16:27:02.468Z,233.45
2023-07-28T16:29:06.097Z,210.82
2023-07-28T16:31:13.704Z,177.60
2023-07-28T16:33:17.582Z,150.25
2023-07-28T16:37:22.550Z,413.90
2023-07-28T16:39:25.181Z,461.10
2023-07-28T16:41:27.850Z,189.73
2023-07-28T16:43:30.399Z,163.20
2023-07-28T16:45:33.020Z,163.05
2023-07-28T16:47:39.804Z,168.32
2023-07-28T16:49:42.789Z,446.10
2023-07-28T16:51:45.545Z,220.18
2023-07-28T16:53:52.423Z,342.77
2023-07-28T16:55:55.302Z,213.43
2023-07-28T16:57:57.968Z,203.98
2023-07-28T17:00:00.786Z,423.40
2023-07-28T17:02:06.698Z,196.17
2023-07-28T17:04:29.985Z,370.50
2023-07-28T17:06:36.009Z,188.30
2023-07-28T17:08:43.195Z,181.68
2023-07-28T17:10:48.514Z,211.65
2023-07-28T17:12:51.134Z,428.48
2023-07-28T17:14:53.946Z,170.63
2023-07-28T17:16:56.859Z,601.58
2023-07-28T17:18:59.656Z,207.30
2023-07-28T17:21:04.987Z,494.23
2023-07-28T17:23:08.169Z,404.48
2023-07-28T17:25:11.107Z,551.80
2023-07-28T17:27:13.763Z,479.48
2023-07-28T17:29:17.212Z,551.80
2023-07-28T17:31:21.118Z,405.08
2023-07-28T17:33:23.987Z,231.20
2023-07-28T17:35:31.274Z,166.73
2023-07-28T17:37:36.545Z,174.85
2023-07-28T17:39:41.688Z,420.52
2023-07-28T17:41:44.323Z,612.90
2023-07-28T17:43:47.005Z,514.58
2023-07-28T17:45:49.782Z,478.95
2023-07-28T17:47:52.472Z,418.77
2023-07-28T17:49:57.792Z,588.80
2023-07-28T17:52:00.916Z,623.72
2023-07-28T17:54:07.747Z,398.70
2023-07-28T17:56:10.620Z,595.15
2023-07-28T17:58:13.510Z,579.15
2023-07-28T18:00:18.673Z,558.38
2023-07-28T18:02:22.547Z,597.85
2023-07-28T18:04:25.342Z,418.33
2023-07-28T18:06:28.234Z,591.30
2023-07-28T18:08:31.022Z,578.08
2023-07-28T18:10:36.937Z,395.08
2023-07-28T18:12:41.686Z,572.95
2023-07-28T18:14:44.400Z,553.38
2023-07-28T18:16:47.608Z,357.63
2023-07-28T18:18:52.482Z,369.00
2023-07-28T18:20:56.404Z,398.55
2023-07-28T18:22:59.080Z,412.13
2023-07-28T18:25:01.698Z,260.80
2023-07-28T18:27:07.473Z,585.28
2023-07-28T18:29:10.246Z,248.35
2023-07-28T18:31:13.779Z,544.88
2023-07-28T18:33:16.497Z,528.63
2023-07-28T18:35:19.483Z,330.48
2023-07-28T18:37:22.815Z,159.90
2023-07-28T18:39:25.553Z,234.18
2023-07-28T18:41:28.732Z,201.77
2023-07-28T18:43:35.235Z,432.75
2023-07-28T18:45:39.998Z,491.02
2023-07-28T18:47:44.280Z,231.68
2023-07-28T18:49:58.589Z,199.02
2023-07-28T18:52:01.471Z,198.68
2023-07-28T18:54:04.452Z,294.70
2023-07-28T18:56:07.261Z,178.38
2023-07-28T18:58:10.002Z,349.70
2023-07-28T19:00:16.168Z,159.38
2023-07-28T19:02:18.967Z,201.45
2023-07-28T19:04:21.652Z,186.57
2023-07-28T19:06:24.457Z,134.57
2023-07-28T19:08:27.200Z,209.13
2023-07-28T19:10:32.357Z,218.93
2023-07-28T19:12:35.320Z,265.25
2023-07-28T19:14:39.713Z,194.63
2023-07-28T19:16:45.166Z,245.70
2023-07-28T19:18:50.284Z,296.13
2023-07-28T19:20:56.064Z,319.13
2023-07-28T19:22:58.902Z,312.70
2023-07-28T19:25:07.020Z,279.27
2023-07-28T19:27:10.498Z,276.13
2023-07-28T19:29:13.690Z,287.90
2023-07-28T19:31:17.450Z,270.33
2023-07-28T19:33:22.721Z,259.35
2023-07-28T19:35:25.706Z,322.70
2023-07-28T19:37:43.057Z,269.20
2023-07-28T19:39:49.996Z,272.60
2023-07-28T19:41:53.907Z,228.80
2023-07-28T19:43:58.424Z,368.25
2023-07-28T19:46:03.112Z,358.60
2023-07-28T19:48:06.467Z,246.88
2023-07-28T19:50:15.215Z,353.80
2023-07-28T19:52:22.856Z,338.97
2023-07-28T19:54:26.461Z,244.57
2023-07-28T19:56:29.231Z,234.95
2023-07-28T19:58:31.997Z,195.88
2023-07-28T20:00:34.699Z,233.80
2023-07-28T20:02:37.797Z,251.40
2023-07-28T20:04:42.297Z,332.42
2023-07-28T20:06:47.732Z,228.05
2023-07-28T20:08:50.702Z,345.27
2023-07-28T20:10:53.269Z,219.50
2023-07-28T20:12:55.993Z,248.60
2023-07-28T20:14:59.666Z,303.52
2023-07-28T20:17:02.323Z,289.08
2023-07-28T20:19:04.926Z,227.70
2023-07-28T20:21:09.533Z,246.13
2023-07-28T20:23:15.674Z,235.82
2023-07-28T20:25:18.397Z,263.50
2023-07-28T20:27:21.129Z,397.05
2023-07-28T20:29:25.797Z,183.55
2023-07-28T20:31:29.086Z,192.70
2023-07-28T20:33:31.664Z,193.45
2023-07-28T20:35:36.026Z,171.70
2023-07-28T20:37:38.759Z,254.27
2023-07-28T20:39:43.861Z,172.25
2023-07-28T20:41:48.569Z,205.80
2023-07-28T20:43:51.288Z,199.77
2023-07-28T20:45:54.314Z,134.50
2023-07-28T20:47:57.231Z,165.90
2023-07-28T20:49:59.900Z,157.57
2023-07-28T20:52:02.647Z,189.55
2023-07-28T20:54:05.441Z,181.32
2023-07-28T20:56:13.289Z,109.25
2023-07-28T20:58:16.425Z,181.80
2023-07-28T21:00:21.756Z,133.80
2023-07-28T21:02:24.908Z,153.02
2023-07-28T21:04:27.611Z,116.97
2023-07-28T21:06:30.421Z,166.35
2023-07-28T21:08:33.184Z,160.15
2023-07-28T21:10:37.074Z,195.65
2023-07-28T21:12:43.725Z,153.25
2023-07-28T21:14:49.435Z,185.75
2023-07-28T21:16:52.263Z,174.68
2023-07-28T21:18:54.867Z,155.02
2023-07-28T21:20:57.662Z,91.38
2023-07-28T21:23:00.831Z,126.25
2023-07-28T21:25:03.494Z,108.23
2023-07-28T21:27:06.993Z,97.50
2023-07-28T21:29:12.473Z,166.68
2023-07-28T21:31:17.635Z,99.45
2023-07-28T21:33:22.032Z,81.13
2023-07-28T21:35:24.879Z,158.88
2023-07-28T21:37:27.655Z,185.63
2023-07-28T21:39:30.307Z,152.65
2023-07-28T21:41:33.196Z,182.35
2023-07-28T21:43:36.011Z,127.93
2023-07-28T21:45:41.327Z,96.28
2023-07-28T21:47:44.040Z,102.72
2023-07-28T21:49:46.860Z,154.23
2023-07-28T21:51:49.541Z,167.80
2023-07-28T21:53:53.241Z,102.18
2023-07-28T21:55:56.129Z,105.47
2023-07-28T21:58:01.340Z,176.27
2023-07-28T22:00:04.931Z,146.25
2023-07-28T22:02:17.678Z,163.55
2023-07-28T22:04:20.444Z,139.30
2023-07-28T22:06:23.113Z,85.88
2023-07-28T22:08:28.894Z,145.48
2023-07-28T22:10:35.443Z,92.07
2023-07-28T22:12:38.206Z,95.10
2023-07-28T22:14:41.064Z,143.77
2023-07-28T22:16:44.229Z,98.80
2023-07-28T22:18:51.948Z,173.48
2023-07-28T22:20:54.623Z,83.63
2023-07-28T22:22:58.373Z,86.60
2023-07-28T22:25:00.996Z,109.00
2023-07-28T22:27:03.978Z,128.57
2023-07-28T22:29:06.670Z,102.10
2023-07-28T22:31:09.560Z,105.22
2023-07-28T22:33:13.654Z,98.97
2023-07-28T22:35:19.648Z,106.53
2023-07-28T22:37:22.822Z,110.03
2023-07-28T22:39:25.584Z,66.88
2023-07-28T22:41:28.344Z,71.13
2023-07-28T22:43:30.917Z,100.60
2023-07-28T22:45:33.599Z,92.47
2023-07-28T22:47:37.786Z,72.13
2023-07-28T22:49:40.496Z,69.13
2023-07-28T22:51:46.029Z,56.45
2023-07-28T22:53:48.899Z,75.70
2023-07-28T22:55:52.092Z,64.20
2023-07-28T22:57:54.764Z,85.93
2023-07-28T22:59:57.461Z,78.18
2023-07-28T23:02:01.377Z,71.22
2023-07-28T23:04:04.360Z,54.90
2023-07-28T23:06:07.122Z,84.68
2023-07-28T23:08:12.345Z,92.28
2023-07-28T23:10:17.752Z,107.40
2023-07-28T23:12:20.552Z,77.05
2023-07-28T23:14:23.450Z,110.32
2023-07-28T23:16:26.131Z,59.13
2023-07-28T23:18:29.199Z,57.15
2023-07-28T23:20:32.178Z,67.35
2023-07-28T23:22:34.881Z,91.07
2023-07-28T23:24:40.303Z,104.38
2023-07-28T23:26:42.971Z,93.57
2023-07-28T23:28:45.899Z,119.80
2023-07-28T23:30:48.819Z,125.65
2023-07-28T23:32:51.653Z,120.10
2023-07-28T23:34:57.055Z,104.85
2023-07-28T23:37:00.649Z,115.88
2023-07-28T23:39:08.563Z,103.80
2023-07-28T23:41:18.024Z,111.35
2023-07-28T23:43:20.765Z,112.72
2023-07-28T23:45:23.534Z,110.72
2023-07-28T23:47:26.375Z,112.68
2023-07-28T23:49:29.160Z,97.28
2023-07-28T23:51:33.825Z,98.43
2023-07-28T23:53:37.099Z,76.25
2023-07-28T23:55:40.192Z,41.00
2023-07-28T23:57:46.650Z,110.43
2023-07-28T23:59:49.345Z,115.68
